sensor_id;sensor_type;location;lat;lon;timestamp;temperature;humidity
16643;DHT22;8435;52.184;5.406;2023-07-20T00:02:03;20.60;96.40
16643;DHT22;8435;52.184;5.406;2023-07-20T00:04:31;20.60;96.50
16643;DHT22;8435;52.184;5.406;2023-07-20T00:06:58;20.60;96.60
16643;DHT22;8435;52.184;5.406;2023-07-20T00:09:26;20.60;96.70
16643;DHT22;8435;52.184;5.406;2023-07-20T00:11:54;20.60;96.70
16643;DHT22;8435;52.184;5.406;2023-07-20T00:14:21;20.60;96.80
16643;DHT22;8435;52.184;5.406;2023-07-20T00:16:50;20.60;96.70
16643;DHT22;8435;52.184;5.406;2023-07-20T00:19:22;20.60;96.80
16643;DHT22;8435;52.184;5.406;2023-07-20T00:21:49;20.60;96.70
16643;DHT22;8435;52.184;5.406;2023-07-20T00:24:16;20.60;96.70
16643;DHT22;8435;52.184;5.406;2023-07-20T00:26:45;20.60;96.70
16643;DHT22;8435;52.184;5.406;2023-07-20T00:29:13;20.50;96.70
16643;DHT22;8435;52.184;5.406;2023-07-20T00:31:40;20.50;96.60
16643;DHT22;8435;52.184;5.406;2023-07-20T00:34:08;20.50;96.50
16643;DHT22;8435;52.184;5.406;2023-07-20T00:36:35;20.50;96.50
16643;DHT22;8435;52.184;5.406;2023-07-20T00:39:02;20.50;96.50
16643;DHT22;8435;52.184;5.406;2023-07-20T00:41:29;20.40;96.40
16643;DHT22;8435;52.184;5.406;2023-07-20T00:43:57;20.40;96.40
16643;DHT22;8435;52.184;5.406;2023-07-20T00:46:25;20.30;96.70
16643;DHT22;8435;52.184;5.406;2023-07-20T00:48:57;20.30;96.60
16643;DHT22;8435;52.184;5.406;2023-07-20T00:51:25;20.20;96.40
16643;DHT22;8435;52.184;5.406;2023-07-20T00:53:53;20.20;96.40
16643;DHT22;8435;52.184;5.406;2023-07-20T00:56:20;20.20;96.40
16643;DHT22;8435;52.184;5.406;2023-07-20T00:58:48;20.10;96.50
16643;DHT22;8435;52.184;5.406;2023-07-20T01:01:15;20.10;96.50
16643;DHT22;8435;52.184;5.406;2023-07-20T01:03:43;20.10;96.60
16643;DHT22;8435;52.184;5.406;2023-07-20T01:06:16;20.00;96.90
16643;DHT22;8435;52.184;5.406;2023-07-20T01:09:00;19.90;96.80
16643;DHT22;8435;52.184;5.406;2023-07-20T01:11:38;19.90;96.90
16643;DHT22;8435;52.184;5.406;2023-07-20T01:14:05;19.90;96.80
16643;DHT22;8435;52.184;5.406;2023-07-20T01:16:33;19.90;96.70
16643;DHT22;8435;52.184;5.406;2023-07-20T01:19:01;19.80;97.00
16643;DHT22;8435;52.184;5.406;2023-07-20T01:21:33;19.90;96.80
16643;DHT22;8435;52.184;5.406;2023-07-20T01:24:31;19.80;96.90
16643;DHT22;8435;52.184;5.406;2023-07-20T01:33:19;19.60;96.90
16643;DHT22;8435;52.184;5.406;2023-07-20T01:35:51;19.60;96.90
16643;DHT22;8435;52.184;5.406;2023-07-20T01:38:20;19.60;97.40
16643;DHT22;8435;52.184;5.406;2023-07-20T01:40:51;19.50;97.00
16643;DHT22;8435;52.184;5.406;2023-07-20T01:43:18;19.50;97.10
16643;DHT22;8435;52.184;5.406;2023-07-20T01:45:45;19.40;97.10
16643;DHT22;8435;52.184;5.406;2023-07-20T01:48:15;19.40;97.20
16643;DHT22;8435;52.184;5.406;2023-07-20T01:50:43;19.40;97.20
16643;DHT22;8435;52.184;5.406;2023-07-20T01:53:10;19.40;97.30
16643;DHT22;8435;52.184;5.406;2023-07-20T01:55:37;19.40;97.30
16643;DHT22;8435;52.184;5.406;2023-07-20T01:58:03;19.30;97.30
16643;DHT22;8435;52.184;5.406;2023-07-20T02:00:34;19.30;97.40
16643;DHT22;8435;52.184;5.406;2023-07-20T02:03:03;19.30;97.40
16643;DHT22;8435;52.184;5.406;2023-07-20T02:05:30;19.30;97.40
16643;DHT22;8435;52.184;5.406;2023-07-20T02:07:58;19.20;97.50
16643;DHT22;8435;52.184;5.406;2023-07-20T02:10:25;19.20;97.60
16643;DHT22;8435;52.184;5.406;2023-07-20T02:12:52;19.20;97.60
16643;DHT22;8435;52.184;5.406;2023-07-20T02:15:21;19.20;97.70
16643;DHT22;8435;52.184;5.406;2023-07-20T02:17:48;19.20;97.80
16643;DHT22;8435;52.184;5.406;2023-07-20T02:20:15;19.20;97.70
16643;DHT22;8435;52.184;5.406;2023-07-20T02:22:42;19.20;97.70
16643;DHT22;8435;52.184;5.406;2023-07-20T02:25:11;19.20;97.60
16643;DHT22;8435;52.184;5.406;2023-07-20T02:27:38;19.20;97.60
16643;DHT22;8435;52.184;5.406;2023-07-20T02:30:06;19.20;97.60
16643;DHT22;8435;52.184;5.406;2023-07-20T02:32:34;19.10;97.50
16643;DHT22;8435;52.184;5.406;2023-07-20T02:35:01;19.10;97.50
16643;DHT22;8435;52.184;5.406;2023-07-20T02:37:29;19.10;97.50
16643;DHT22;8435;52.184;5.406;2023-07-20T02:39:56;19.10;97.50
16643;DHT22;8435;52.184;5.406;2023-07-20T02:42:24;19.00;97.50
16643;DHT22;8435;52.184;5.406;2023-07-20T02:44:54;19.00;97.60
16643;DHT22;8435;52.184;5.406;2023-07-20T02:47:21;19.00;97.90
16643;DHT22;8435;52.184;5.406;2023-07-20T02:49:48;18.90;97.60
16643;DHT22;8435;52.184;5.406;2023-07-20T02:52:16;18.90;97.70
16643;DHT22;8435;52.184;5.406;2023-07-20T02:54:43;18.90;97.70
16643;DHT22;8435;52.184;5.406;2023-07-20T02:57:11;18.80;97.70
16643;DHT22;8435;52.184;5.406;2023-07-20T02:59:39;18.80;97.70
16643;DHT22;8435;52.184;5.406;2023-07-20T03:02:06;18.80;97.80
16643;DHT22;8435;52.184;5.406;2023-07-20T03:04:35;18.70;97.80
16643;DHT22;8435;52.184;5.406;2023-07-20T03:07:02;18.70;97.80
16643;DHT22;8435;52.184;5.406;2023-07-20T03:09:29;18.70;97.80
16643;DHT22;8435;52.184;5.406;2023-07-20T03:11:56;18.70;97.90
16643;DHT22;8435;52.184;5.406;2023-07-20T03:14:23;18.60;97.90
16643;DHT22;8435;52.184;5.406;2023-07-20T03:16:51;18.60;97.90
16643;DHT22;8435;52.184;5.406;2023-07-20T03:19:18;18.60;98.00
16643;DHT22;8435;52.184;5.406;2023-07-20T03:21:45;18.60;98.00
16643;DHT22;8435;52.184;5.406;2023-07-20T03:24:12;18.60;98.10
16643;DHT22;8435;52.184;5.406;2023-07-20T03:26:39;18.50;98.10
16643;DHT22;8435;52.184;5.406;2023-07-20T03:29:06;18.50;98.20
16643;DHT22;8435;52.184;5.406;2023-07-20T03:31:33;18.50;98.20
16643;DHT22;8435;52.184;5.406;2023-07-20T03:34:02;18.50;98.20
16643;DHT22;8435;52.184;5.406;2023-07-20T03:36:29;18.50;98.30
16643;DHT22;8435;52.184;5.406;2023-07-20T03:38:57;18.50;98.30
16643;DHT22;8435;52.184;5.406;2023-07-20T03:41:23;18.50;98.30
16643;DHT22;8435;52.184;5.406;2023-07-20T03:43:51;18.50;98.40
16643;DHT22;8435;52.184;5.406;2023-07-20T03:46:17;18.50;98.40
16643;DHT22;8435;52.184;5.406;2023-07-20T03:48:44;18.50;98.40
16643;DHT22;8435;52.184;5.406;2023-07-20T03:51:13;18.40;98.40
16643;DHT22;8435;52.184;5.406;2023-07-20T03:53:40;18.50;98.50
16643;DHT22;8435;52.184;5.406;2023-07-20T03:56:06;18.50;98.40
16643;DHT22;8435;52.184;5.406;2023-07-20T03:58:33;18.50;98.40
16643;DHT22;8435;52.184;5.406;2023-07-20T04:01:00;18.40;98.40
16643;DHT22;8435;52.184;5.406;2023-07-20T04:03:27;18.40;98.40
16643;DHT22;8435;52.184;5.406;2023-07-20T04:05:54;18.40;98.40
16643;DHT22;8435;52.184;5.406;2023-07-20T04:08:23;18.40;98.40
16643;DHT22;8435;52.184;5.406;2023-07-20T04:10:50;18.40;98.50
16643;DHT22;8435;52.184;5.406;2023-07-20T04:13:17;18.30;98.50
16643;DHT22;8435;52.184;5.406;2023-07-20T04:15:44;18.30;98.60
16643;DHT22;8435;52.184;5.406;2023-07-20T04:18:11;18.30;98.70
16643;DHT22;8435;52.184;5.406;2023-07-20T04:20:38;18.40;98.90
16643;DHT22;8435;52.184;5.406;2023-07-20T04:23:05;18.40;98.90
16643;DHT22;8435;52.184;5.406;2023-07-20T04:25:33;18.50;98.90
16643;DHT22;8435;52.184;5.406;2023-07-20T04:28:05;18.50;98.90
16643;DHT22;8435;52.184;5.406;2023-07-20T04:30:34;18.50;98.80
16643;DHT22;8435;52.184;5.406;2023-07-20T04:33:01;18.60;98.70
16643;DHT22;8435;52.184;5.406;2023-07-20T04:35:47;18.60;98.70
16643;DHT22;8435;52.184;5.406;2023-07-20T04:38:20;18.60;98.90
16643;DHT22;8435;52.184;5.406;2023-07-20T04:40:49;18.60;98.70
16643;DHT22;8435;52.184;5.406;2023-07-20T04:43:19;18.60;98.60
16643;DHT22;8435;52.184;5.406;2023-07-20T04:45:46;18.60;98.50
16643;DHT22;8435;52.184;5.406;2023-07-20T04:48:15;18.60;98.50
16643;DHT22;8435;52.184;5.406;2023-07-20T04:50:43;18.60;98.60
16643;DHT22;8435;52.184;5.406;2023-07-20T04:53:13;18.50;98.60
16643;DHT22;8435;52.184;5.406;2023-07-20T04:55:40;18.50;98.60
16643;DHT22;8435;52.184;5.406;2023-07-20T04:58:09;18.60;98.90
16643;DHT22;8435;52.184;5.406;2023-07-20T05:00:38;18.60;98.90
16643;DHT22;8435;52.184;5.406;2023-07-20T05:03:05;18.70;98.90
16643;DHT22;8435;52.184;5.406;2023-07-20T05:05:32;18.70;98.80
16643;DHT22;8435;52.184;5.406;2023-07-20T05:07:58;18.80;98.70
16643;DHT22;8435;52.184;5.406;2023-07-20T05:10:25;18.80;98.60
16643;DHT22;8435;52.184;5.406;2023-07-20T05:12:52;18.80;98.50
16643;DHT22;8435;52.184;5.406;2023-07-20T05:15:20;18.70;98.50
16643;DHT22;8435;52.184;5.406;2023-07-20T05:17:47;18.70;98.50
16643;DHT22;8435;52.184;5.406;2023-07-20T05:20:14;18.70;98.50
16643;DHT22;8435;52.184;5.406;2023-07-20T05:22:41;18.70;98.60
16643;DHT22;8435;52.184;5.406;2023-07-20T05:25:09;18.70;98.60
16643;DHT22;8435;52.184;5.406;2023-07-20T05:27:37;18.70;98.60
16643;DHT22;8435;52.184;5.406;2023-07-20T05:30:05;18.70;98.70
16643;DHT22;8435;52.184;5.406;2023-07-20T05:32:34;18.70;99.00
16643;DHT22;8435;52.184;5.406;2023-07-20T05:35:01;18.70;98.80
16643;DHT22;8435;52.184;5.406;2023-07-20T05:37:28;18.70;98.70
16643;DHT22;8435;52.184;5.406;2023-07-20T05:39:55;18.80;98.70
16643;DHT22;8435;52.184;5.406;2023-07-20T05:42:22;18.80;98.80
16643;DHT22;8435;52.184;5.406;2023-07-20T05:44:49;18.80;98.90
16643;DHT22;8435;52.184;5.406;2023-07-20T05:47:18;18.80;98.90
16643;DHT22;8435;52.184;5.406;2023-07-20T05:49:46;18.90;99.10
16643;DHT22;8435;52.184;5.406;2023-07-20T05:52:13;19.00;99.20
16643;DHT22;8435;52.184;5.406;2023-07-20T05:54:40;19.20;99.30
16643;DHT22;8435;52.184;5.406;2023-07-20T05:57:08;19.30;99.10
16643;DHT22;8435;52.184;5.406;2023-07-20T05:59:35;19.50;98.90
16643;DHT22;8435;52.184;5.406;2023-07-20T06:02:02;19.60;98.60
16643;DHT22;8435;52.184;5.406;2023-07-20T06:04:29;19.70;98.40
16643;DHT22;8435;52.184;5.406;2023-07-20T06:06:57;19.70;98.20
16643;DHT22;8435;52.184;5.406;2023-07-20T06:09:24;19.80;98.10
16643;DHT22;8435;52.184;5.406;2023-07-20T06:11:50;19.80;98.20
16643;DHT22;8435;52.184;5.406;2023-07-20T06:14:17;19.90;98.10
16643;DHT22;8435;52.184;5.406;2023-07-20T06:16:45;19.90;98.00
16643;DHT22;8435;52.184;5.406;2023-07-20T06:19:11;20.00;98.20
16643;DHT22;8435;52.184;5.406;2023-07-20T06:21:38;20.00;97.80
16643;DHT22;8435;52.184;5.406;2023-07-20T06:24:10;20.10;97.70
16643;DHT22;8435;52.184;5.406;2023-07-20T06:26:38;20.20;97.50
16643;DHT22;8435;52.184;5.406;2023-07-20T06:29:05;20.20;97.30
16643;DHT22;8435;52.184;5.406;2023-07-20T06:31:33;20.20;97.10
16643;DHT22;8435;52.184;5.406;2023-07-20T06:33:59;20.20;97.00
16643;DHT22;8435;52.184;5.406;2023-07-20T06:36:27;20.30;97.00
16643;DHT22;8435;52.184;5.406;2023-07-20T06:38:54;20.30;97.10
16643;DHT22;8435;52.184;5.406;2023-07-20T06:41:23;20.40;96.90
16643;DHT22;8435;52.184;5.406;2023-07-20T06:43:50;20.40;96.70
16643;DHT22;8435;52.184;5.406;2023-07-20T06:46:18;20.50;96.70
16643;DHT22;8435;52.184;5.406;2023-07-20T06:48:44;20.60;97.10
16643;DHT22;8435;52.184;5.406;2023-07-20T06:51:11;20.70;97.10
16643;DHT22;8435;52.184;5.406;2023-07-20T06:53:38;20.80;96.80
16643;DHT22;8435;52.184;5.406;2023-07-20T06:56:05;21.00;96.40
16643;DHT22;8435;52.184;5.406;2023-07-20T06:58:33;21.10;96.10
16643;DHT22;8435;52.184;5.406;2023-07-20T07:01:04;21.20;95.90
16643;DHT22;8435;52.184;5.406;2023-07-20T07:03:32;21.20;95.90
16643;DHT22;8435;52.184;5.406;2023-07-20T07:06:01;21.30;95.70
16643;DHT22;8435;52.184;5.406;2023-07-20T07:08:28;21.40;95.40
16643;DHT22;8435;52.184;5.406;2023-07-20T07:10:55;21.50;95.40
16643;DHT22;8435;52.184;5.406;2023-07-20T07:13:22;21.50;95.30
16643;DHT22;8435;52.184;5.406;2023-07-20T07:15:51;21.60;95.30
16643;DHT22;8435;52.184;5.406;2023-07-20T07:18:21;21.60;95.80
16643;DHT22;8435;52.184;5.406;2023-07-20T07:20:52;21.80;96.10
16643;DHT22;8435;52.184;5.406;2023-07-20T07:23:25;22.10;95.90
16643;DHT22;8435;52.184;5.406;2023-07-20T07:25:52;22.40;95.50
16643;DHT22;8435;52.184;5.406;2023-07-20T07:28:19;22.60;94.90
16643;DHT22;8435;52.184;5.406;2023-07-20T07:30:46;22.70;94.50
16643;DHT22;8435;52.184;5.406;2023-07-20T07:33:14;22.90;94.30
16643;DHT22;8435;52.184;5.406;2023-07-20T07:35:41;23.00;94.20
16643;DHT22;8435;52.184;5.406;2023-07-20T07:38:07;23.30;93.70
16643;DHT22;8435;52.184;5.406;2023-07-20T07:40:37;23.40;93.10
16643;DHT22;8435;52.184;5.406;2023-07-20T07:43:04;23.50;92.80
16643;DHT22;8435;52.184;5.406;2023-07-20T07:45:31;23.60;93.00
16643;DHT22;8435;52.184;5.406;2023-07-20T07:47:58;23.80;93.10
16643;DHT22;8435;52.184;5.406;2023-07-20T07:50:26;24.00;93.30
16643;DHT22;8435;52.184;5.406;2023-07-20T07:52:54;24.40;92.90
16643;DHT22;8435;52.184;5.406;2023-07-20T07:55:21;24.80;93.30
16643;DHT22;8435;52.184;5.406;2023-07-20T07:57:47;25.30;93.10
16643;DHT22;8435;52.184;5.406;2023-07-20T08:00:15;25.80;92.50
16643;DHT22;8435;52.184;5.406;2023-07-20T08:02:44;26.30;91.60
16643;DHT22;8435;52.184;5.406;2023-07-20T08:05:12;26.80;91.30
16643;DHT22;8435;52.184;5.406;2023-07-20T08:07:40;27.30;90.10
16643;DHT22;8435;52.184;5.406;2023-07-20T08:10:08;27.70;87.30
16643;DHT22;8435;52.184;5.406;2023-07-20T08:12:35;28.10;86.50
16643;DHT22;8435;52.184;5.406;2023-07-20T08:15:03;28.50;83.70
16643;DHT22;8435;52.184;5.406;2023-07-20T08:17:32;28.80;81.40
16643;DHT22;8435;52.184;5.406;2023-07-20T08:19:59;29.20;81.30
16643;DHT22;8435;52.184;5.406;2023-07-20T08:22:26;29.40;77.00
16643;DHT22;8435;52.184;5.406;2023-07-20T08:24:54;29.70;75.00
16643;DHT22;8435;52.184;5.406;2023-07-20T08:27:21;29.80;72.00
16643;DHT22;8435;52.184;5.406;2023-07-20T08:29:51;29.90;70.30
16643;DHT22;8435;52.184;5.406;2023-07-20T08:32:18;30.10;68.60
16643;DHT22;8435;52.184;5.406;2023-07-20T08:34:45;30.10;68.90
16643;DHT22;8435;52.184;5.406;2023-07-20T08:37:11;30.00;68.00
16643;DHT22;8435;52.184;5.406;2023-07-20T08:39:38;29.90;67.90
16643;DHT22;8435;52.184;5.406;2023-07-20T08:42:08;29.90;66.80
16643;DHT22;8435;52.184;5.406;2023-07-20T08:44:36;29.90;64.40
16643;DHT22;8435;52.184;5.406;2023-07-20T08:47:05;29.90;65.40
16643;DHT22;8435;52.184;5.406;2023-07-20T08:49:32;29.90;63.80
16643;DHT22;8435;52.184;5.406;2023-07-20T08:52:00;30.00;63.70
16643;DHT22;8435;52.184;5.406;2023-07-20T08:54:30;30.10;64.70
16643;DHT22;8435;52.184;5.406;2023-07-20T08:56:59;30.20;63.90
16643;DHT22;8435;52.184;5.406;2023-07-20T08:59:29;30.30;64.60
16643;DHT22;8435;52.184;5.406;2023-07-20T09:01:58;30.40;62.50
16643;DHT22;8435;52.184;5.406;2023-07-20T09:04:25;30.50;62.50
16643;DHT22;8435;52.184;5.406;2023-07-20T09:06:52;30.60;63.00
16643;DHT22;8435;52.184;5.406;2023-07-20T09:09:19;30.80;62.10
16643;DHT22;8435;52.184;5.406;2023-07-20T09:11:47;30.90;63.30
16643;DHT22;8435;52.184;5.406;2023-07-20T09:14:15;31.00;62.20
16643;DHT22;8435;52.184;5.406;2023-07-20T09:16:52;31.00;61.90
16643;DHT22;8435;52.184;5.406;2023-07-20T09:19:19;31.00;60.50
16643;DHT22;8435;52.184;5.406;2023-07-20T09:21:46;31.00;61.20
16643;DHT22;8435;52.184;5.406;2023-07-20T09:24:14;30.90;60.20
16643;DHT22;8435;52.184;5.406;2023-07-20T09:26:42;30.90;59.60
16643;DHT22;8435;52.184;5.406;2023-07-20T09:29:09;30.80;58.10
16643;DHT22;8435;52.184;5.406;2023-07-20T09:31:37;30.70;59.10
16643;DHT22;8435;52.184;5.406;2023-07-20T09:34:09;30.60;58.50
16643;DHT22;8435;52.184;5.406;2023-07-20T09:36:36;30.40;58.20
16643;DHT22;8435;52.184;5.406;2023-07-20T09:39:04;30.30;58.00
16643;DHT22;8435;52.184;5.406;2023-07-20T09:41:39;30.30;58.50
16643;DHT22;8435;52.184;5.406;2023-07-20T09:44:07;30.30;57.50
16643;DHT22;8435;52.184;5.406;2023-07-20T09:46:42;30.20;57.40
16643;DHT22;8435;52.184;5.406;2023-07-20T09:49:10;30.30;56.80
16643;DHT22;8435;52.184;5.406;2023-07-20T09:51:37;30.30;57.80
16643;DHT22;8435;52.184;5.406;2023-07-20T09:54:05;30.40;58.40
16643;DHT22;8435;52.184;5.406;2023-07-20T09:56:35;30.40;57.90
16643;DHT22;8435;52.184;5.406;2023-07-20T09:59:02;30.50;56.80
16643;DHT22;8435;52.184;5.406;2023-07-20T10:01:30;30.40;57.00
16643;DHT22;8435;52.184;5.406;2023-07-20T10:03:59;30.20;56.50
16643;DHT22;8435;52.184;5.406;2023-07-20T10:06:33;30.00;56.60
16643;DHT22;8435;52.184;5.406;2023-07-20T10:09:02;29.80;56.60
16643;DHT22;8435;52.184;5.406;2023-07-20T10:11:35;29.50;56.40
16643;DHT22;8435;52.184;5.406;2023-07-20T10:14:04;29.20;56.70
16643;DHT22;8435;52.184;5.406;2023-07-20T10:16:34;29.00;57.50
16643;DHT22;8435;52.184;5.406;2023-07-20T10:19:05;28.80;58.70
16643;DHT22;8435;52.184;5.406;2023-07-20T10:21:37;28.60;57.90
16643;DHT22;8435;52.184;5.406;2023-07-20T10:24:07;28.50;56.80
16643;DHT22;8435;52.184;5.406;2023-07-20T10:26:34;28.40;57.30
16643;DHT22;8435;52.184;5.406;2023-07-20T10:29:01;28.30;57.40
16643;DHT22;8435;52.184;5.406;2023-07-20T10:31:29;28.20;57.80
16643;DHT22;8435;52.184;5.406;2023-07-20T10:33:57;28.10;57.90
16643;DHT22;8435;52.184;5.406;2023-07-20T10:36:25;28.00;58.60
16643;DHT22;8435;52.184;5.406;2023-07-20T10:38:55;27.90;58.90
16643;DHT22;8435;52.184;5.406;2023-07-20T10:41:29;27.90;58.70
16643;DHT22;8435;52.184;5.406;2023-07-20T10:44:00;27.90;58.30
16643;DHT22;8435;52.184;5.406;2023-07-20T10:46:43;27.80;58.70
16643;DHT22;8435;52.184;5.406;2023-07-20T10:49:12;27.80;58.60
16643;DHT22;8435;52.184;5.406;2023-07-20T10:51:43;27.80;59.90
16643;DHT22;8435;52.184;5.406;2023-07-20T10:54:36;27.80;59.90
16643;DHT22;8435;52.184;5.406;2023-07-20T10:57:29;27.80;59.60
16643;DHT22;8435;52.184;5.406;2023-07-20T11:00:18;27.90;59.60
16643;DHT22;8435;52.184;5.406;2023-07-20T11:02:49;27.90;58.90
16643;DHT22;8435;52.184;5.406;2023-07-20T11:05:36;28.00;59.80
16643;DHT22;8435;52.184;5.406;2023-07-20T11:08:10;28.00;59.00
16643;DHT22;8435;52.184;5.406;2023-07-20T11:10:38;27.90;58.70
16643;DHT22;8435;52.184;5.406;2023-07-20T11:13:26;27.90;59.20
16643;DHT22;8435;52.184;5.406;2023-07-20T11:16:10;27.90;59.00
16643;DHT22;8435;52.184;5.406;2023-07-20T11:18:37;27.80;58.50
16643;DHT22;8435;52.184;5.406;2023-07-20T11:21:08;27.70;57.80
16643;DHT22;8435;52.184;5.406;2023-07-20T11:23:38;27.70;57.60
16643;DHT22;8435;52.184;5.406;2023-07-20T11:26:06;27.70;57.60
16643;DHT22;8435;52.184;5.406;2023-07-20T11:28:34;27.70;58.00
16643;DHT22;8435;52.184;5.406;2023-07-20T11:31:01;27.70;58.40
16643;DHT22;8435;52.184;5.406;2023-07-20T11:33:32;27.70;58.30
16643;DHT22;8435;52.184;5.406;2023-07-20T11:35:59;27.70;58.50
16643;DHT22;8435;52.184;5.406;2023-07-20T11:38:26;27.70;58.00
16643;DHT22;8435;52.184;5.406;2023-07-20T11:40:54;27.70;58.20
16643;DHT22;8435;52.184;5.406;2023-07-20T11:43:23;27.70;57.50
16643;DHT22;8435;52.184;5.406;2023-07-20T11:45:51;27.70;57.60
16643;DHT22;8435;52.184;5.406;2023-07-20T11:48:18;27.70;57.40
16643;DHT22;8435;52.184;5.406;2023-07-20T11:50:45;27.70;58.00
16643;DHT22;8435;52.184;5.406;2023-07-20T11:53:12;27.80;56.90
16643;DHT22;8435;52.184;5.406;2023-07-20T11:55:40;27.80;56.40
16643;DHT22;8435;52.184;5.406;2023-07-20T11:58:10;27.80;56.40
16643;DHT22;8435;52.184;5.406;2023-07-20T12:00:39;27.90;56.30
16643;DHT22;8435;52.184;5.406;2023-07-20T12:03:07;27.90;55.60
16643;DHT22;8435;52.184;5.406;2023-07-20T12:05:34;28.00;55.90
16643;DHT22;8435;52.184;5.406;2023-07-20T12:08:01;28.00;55.40
16643;DHT22;8435;52.184;5.406;2023-07-20T12:10:28;28.00;55.20
16643;DHT22;8435;52.184;5.406;2023-07-20T12:13:01;28.00;55.00
16643;DHT22;8435;52.184;5.406;2023-07-20T12:15:28;28.00;54.70
16643;DHT22;8435;52.184;5.406;2023-07-20T12:18:00;28.00;55.00
16643;DHT22;8435;52.184;5.406;2023-07-20T12:20:30;27.90;54.60
16643;DHT22;8435;52.184;5.406;2023-07-20T12:23:00;27.90;55.20
16643;DHT22;8435;52.184;5.406;2023-07-20T12:25:37;27.80;54.90
16643;DHT22;8435;52.184;5.406;2023-07-20T12:28:06;27.80;54.50
16643;DHT22;8435;52.184;5.406;2023-07-20T12:30:33;27.70;54.90
16643;DHT22;8435;52.184;5.406;2023-07-20T12:33:02;27.60;55.00
16643;DHT22;8435;52.184;5.406;2023-07-20T12:35:29;27.60;54.30
16643;DHT22;8435;52.184;5.406;2023-07-20T12:37:57;27.50;53.90
16643;DHT22;8435;52.184;5.406;2023-07-20T12:40:24;27.50;54.10
16643;DHT22;8435;52.184;5.406;2023-07-20T12:42:51;27.40;54.40
16643;DHT22;8435;52.184;5.406;2023-07-20T12:45:18;27.30;54.50
16643;DHT22;8435;52.184;5.406;2023-07-20T12:47:45;27.30;55.40
16643;DHT22;8435;52.184;5.406;2023-07-20T12:50:14;27.30;55.60
16643;DHT22;8435;52.184;5.406;2023-07-20T12:52:41;27.20;56.30
16643;DHT22;8435;52.184;5.406;2023-07-20T12:55:10;27.20;55.00
16643;DHT22;8435;52.184;5.406;2023-07-20T12:57:38;27.20;55.30
16643;DHT22;8435;52.184;5.406;2023-07-20T13:00:06;27.10;55.00
16643;DHT22;8435;52.184;5.406;2023-07-20T13:02:34;27.10;55.50
16643;DHT22;8435;52.184;5.406;2023-07-20T13:05:02;27.00;55.90
16643;DHT22;8435;52.184;5.406;2023-07-20T13:07:32;27.00;56.00
16643;DHT22;8435;52.184;5.406;2023-07-20T13:09:59;26.90;55.80
16643;DHT22;8435;52.184;5.406;2023-07-20T13:12:26;26.90;56.40
16643;DHT22;8435;52.184;5.406;2023-07-20T13:14:54;26.90;56.40
16643;DHT22;8435;52.184;5.406;2023-07-20T13:17:23;26.80;56.80
16643;DHT22;8435;52.184;5.406;2023-07-20T13:19:50;26.80;56.30
16643;DHT22;8435;52.184;5.406;2023-07-20T13:22:17;26.80;56.10
16643;DHT22;8435;52.184;5.406;2023-07-20T13:24:45;26.80;56.30
16643;DHT22;8435;52.184;5.406;2023-07-20T13:27:14;26.80;56.80
16643;DHT22;8435;52.184;5.406;2023-07-20T13:29:41;26.80;57.30
16643;DHT22;8435;52.184;5.406;2023-07-20T13:32:09;26.80;57.40
16643;DHT22;8435;52.184;5.406;2023-07-20T13:34:36;26.80;57.80
16643;DHT22;8435;52.184;5.406;2023-07-20T13:37:03;26.80;57.60
16643;DHT22;8435;52.184;5.406;2023-07-20T13:39:32;26.70;57.70
16643;DHT22;8435;52.184;5.406;2023-07-20T13:42:00;26.70;57.90
16643;DHT22;8435;52.184;5.406;2023-07-20T13:44:29;26.70;58.40
16643;DHT22;8435;52.184;5.406;2023-07-20T13:46:56;26.70;58.30
16643;DHT22;8435;52.184;5.406;2023-07-20T13:49:23;26.70;58.40
16643;DHT22;8435;52.184;5.406;2023-07-20T13:51:52;26.70;58.80
16643;DHT22;8435;52.184;5.406;2023-07-20T13:54:19;26.70;58.90
16643;DHT22;8435;52.184;5.406;2023-07-20T13:56:48;26.70;58.70
16643;DHT22;8435;52.184;5.406;2023-07-20T13:59:16;26.70;58.40
16643;DHT22;8435;52.184;5.406;2023-07-20T14:01:43;26.70;58.60
16643;DHT22;8435;52.184;5.406;2023-07-20T14:04:10;26.60;58.60
16643;DHT22;8435;52.184;5.406;2023-07-20T14:06:39;26.60;59.70
16643;DHT22;8435;52.184;5.406;2023-07-20T14:09:06;26.60;58.90
16643;DHT22;8435;52.184;5.406;2023-07-20T14:11:35;26.60;58.90
16643;DHT22;8435;52.184;5.406;2023-07-20T14:14:02;26.60;58.70
16643;DHT22;8435;52.184;5.406;2023-07-20T14:16:30;26.60;58.90
16643;DHT22;8435;52.184;5.406;2023-07-20T14:18:58;26.70;59.30
16643;DHT22;8435;52.184;5.406;2023-07-20T14:21:25;26.70;59.60
16643;DHT22;8435;52.184;5.406;2023-07-20T14:23:52;26.80;59.40
16643;DHT22;8435;52.184;5.406;2023-07-20T14:26:23;26.80;59.40
16643;DHT22;8435;52.184;5.406;2023-07-20T14:28:50;26.90;59.90
16643;DHT22;8435;52.184;5.406;2023-07-20T14:31:17;26.90;59.80
16643;DHT22;8435;52.184;5.406;2023-07-20T14:33:46;26.90;59.70
16643;DHT22;8435;52.184;5.406;2023-07-20T14:36:13;26.90;59.80
16643;DHT22;8435;52.184;5.406;2023-07-20T14:38:42;26.90;60.20
16643;DHT22;8435;52.184;5.406;2023-07-20T14:41:12;27.00;59.80
16643;DHT22;8435;52.184;5.406;2023-07-20T14:43:39;27.10;60.50
16643;DHT22;8435;52.184;5.406;2023-07-20T14:46:06;27.00;60.30
16643;DHT22;8435;52.184;5.406;2023-07-20T14:48:33;27.10;60.10
16643;DHT22;8435;52.184;5.406;2023-07-20T14:51:03;27.10;59.50
16643;DHT22;8435;52.184;5.406;2023-07-20T14:53:33;27.10;59.80
16643;DHT22;8435;52.184;5.406;2023-07-20T14:56:00;27.20;59.20
16643;DHT22;8435;52.184;5.406;2023-07-20T14:58:27;27.20;59.40
16643;DHT22;8435;52.184;5.406;2023-07-20T15:00:54;27.20;59.80
16643;DHT22;8435;52.184;5.406;2023-07-20T15:03:21;27.20;59.60
16643;DHT22;8435;52.184;5.406;2023-07-20T15:05:48;27.20;60.10
16643;DHT22;8435;52.184;5.406;2023-07-20T15:08:17;27.20;60.00
16643;DHT22;8435;52.184;5.406;2023-07-20T15:10:45;27.20;60.20
16643;DHT22;8435;52.184;5.406;2023-07-20T15:13:12;27.20;60.50
16643;DHT22;8435;52.184;5.406;2023-07-20T15:15:39;27.20;60.40
16643;DHT22;8435;52.184;5.406;2023-07-20T15:18:07;27.20;60.60
16643;DHT22;8435;52.184;5.406;2023-07-20T15:20:34;27.20;60.10
16643;DHT22;8435;52.184;5.406;2023-07-20T15:23:01;27.20;60.30
16643;DHT22;8435;52.184;5.406;2023-07-20T15:25:30;27.20;60.20
16643;DHT22;8435;52.184;5.406;2023-07-20T15:27:56;27.20;60.30
16643;DHT22;8435;52.184;5.406;2023-07-20T15:30:23;27.10;59.90
16643;DHT22;8435;52.184;5.406;2023-07-20T15:32:50;27.10;59.80
16643;DHT22;8435;52.184;5.406;2023-07-20T15:35:17;27.10;60.20
16643;DHT22;8435;52.184;5.406;2023-07-20T15:37:44;27.00;60.00
16643;DHT22;8435;52.184;5.406;2023-07-20T15:40:11;27.00;60.40
16643;DHT22;8435;52.184;5.406;2023-07-20T15:42:40;26.90;60.40
16643;DHT22;8435;52.184;5.406;2023-07-20T15:45:08;26.90;60.20
16643;DHT22;8435;52.184;5.406;2023-07-20T15:47:35;26.90;60.70
16643;DHT22;8435;52.184;5.406;2023-07-20T15:50:02;26.90;60.50
16643;DHT22;8435;52.184;5.406;2023-07-20T15:52:29;26.90;61.00
16643;DHT22;8435;52.184;5.406;2023-07-20T15:54:56;26.90;61.20
16643;DHT22;8435;52.184;5.406;2023-07-20T15:57:23;26.80;61.30
16643;DHT22;8435;52.184;5.406;2023-07-20T15:59:51;26.80;61.00